Terminal Aerodrome Forecast
Issued by NWS

Home | Current Version | Previous Version | Text Only | Print | Product List | Glossary On
Versions: 1 2 3 4 5 6 7 8 9 10 11 12 13 14 15 16 17 18 19 20 21 22 23
000
FTUS46 KLOX 232332
TAFOXR
TAF
KOXR 232332Z 2400/2424 27012KT P6SM SKC
     FM240400 VRB03KT P6SM SKC
     FM241000 VRB03KT 5SM BR SCT008
     FM241200 VRB03KT 4SM BR BKN006
     FM241600 29003KT 6SM HZ SCT008=

USA.gov is the U.S. government's official web portal to all federal, state and local government web resources and services.